KOY weather

Olga Bay Seaplane Base
Olga Bay, Alaska, United States

Public forecast

Using degrees Fahrenheit for public forecast. Weather courtesy of forecast.io.

METAR (pilot weather report)

Closest report is Akhiok Airport, 13.5 nm (24.9 km) S. Retrieved 2019/09/23 03:30 UTC (18 minutes ago):

PAKH 230330Z AUTO 09031G39KT FEW021 BKN035 OVC050 11/09 A2913 RMK AO2 PK WND 09039/0330 P0005 PWINO $

TAF (pilot weather forecast)

Closest forecast is Kodiak Airport, 66.3 nm (122.7 km) ENE. Retrieved 2019/09/23 04:52 UTC (0 seconds ago):

TAF PADQ 230350Z 2304/2324 08022G30KT P6SM -RA FEW008 BKN015 OVC025 FM230500 07026G34KT P6SM -RA OVC015 FM231400 03022G30KT P6SM -RA SCT015 BKN025 OVC050 FM231600 02019G27KT P6SM -RA SCT015 BKN025 OVC050 FM231800 35014G22KT P6SM -RA FEW015 SCT025 OVC050